createdAt,value
2024-01-04T00:01:23.456Z,-28.83
2024-01-04T00:03:51.848Z,-28.87
2024-01-04T00:06:22.613Z,-29.27
2024-01-04T00:08:50.638Z,-28.62
2024-01-04T00:11:19.106Z,-28.45
2024-01-04T00:13:47.105Z,-28.54
2024-01-04T00:16:15.045Z,-28.39
2024-01-04T00:18:44.020Z,-28.23
2024-01-04T00:21:15.574Z,-28.40
2024-01-04T00:23:44.079Z,-28.33
2024-01-04T00:26:12.076Z,-28.32
2024-01-04T00:28:40.614Z,-28.33
2024-01-04T00:31:13.607Z,-28.80
2024-01-04T00:33:41.912Z,-28.83
2024-01-04T00:36:11.647Z,-28.93
2024-01-04T00:38:40.341Z,-28.58
2024-01-04T00:41:08.391Z,-28.68
2024-01-04T00:43:38.602Z,-28.59
2024-01-04T00:46:06.469Z,-28.60
2024-01-04T00:48:34.622Z,-28.67
2024-01-04T00:51:03.050Z,-28.62
2024-01-04T00:53:34.159Z,-28.44
2024-01-04T00:56:02.626Z,-28.45
2024-01-04T00:58:30.739Z,-28.70
2024-01-04T01:00:59.288Z,-28.56
2024-01-04T01:03:27.612Z,-28.45
2024-01-04T01:05:55.512Z,-28.54
2024-01-04T01:08:24.019Z,-28.40
2024-01-04T01:10:52.707Z,-28.43
2024-01-04T01:13:23.777Z,-28.30
2024-01-04T01:15:52.101Z,-28.45
2024-01-04T01:18:20.231Z,-28.38
2024-01-04T01:20:48.374Z,-27.97
2024-01-04T01:23:16.726Z,-28.13
2024-01-04T01:25:44.785Z,-28.25
2024-01-04T01:28:13.796Z,-28.17
2024-01-04T01:30:43.450Z,-28.16
2024-01-04T01:33:11.564Z,-28.11
2024-01-04T01:35:39.901Z,-28.18
2024-01-04T01:38:08.378Z,-28.29
2024-01-04T01:40:39.405Z,-28.27
2024-01-04T01:43:07.503Z,-28.37
2024-01-04T01:45:36.051Z,-28.34
2024-01-04T01:48:06.298Z,-28.41
2024-01-04T01:50:34.972Z,-28.32
2024-01-04T01:53:03.484Z,-28.43
2024-01-04T01:55:32.200Z,-28.69
2024-01-04T01:58:00.790Z,-29.04
2024-01-04T02:00:29.462Z,-29.00
2024-01-04T02:02:58.671Z,-28.49
2024-01-04T02:05:26.587Z,-28.42
2024-01-04T02:07:54.661Z,-28.70
2024-01-04T02:10:23.325Z,-28.73
2024-01-04T02:12:51.571Z,-28.83
2024-01-04T02:15:19.747Z,-28.70
2024-01-04T02:17:48.579Z,-28.57
2024-01-04T02:20:37.000Z,-28.56
2024-01-04T02:23:05.655Z,-28.33
2024-01-04T02:25:34.272Z,-28.87
2024-01-04T02:28:02.245Z,-28.74
2024-01-04T02:30:30.960Z,-28.62
2024-01-04T02:33:01.921Z,-28.51
2024-01-04T02:35:30.080Z,-28.46
2024-01-04T02:37:58.246Z,-28.41
2024-01-04T02:40:26.612Z,-28.58
2024-01-04T02:42:54.655Z,-28.50
2024-01-04T02:45:22.513Z,-28.42
2024-01-04T02:47:51.256Z,-28.40
2024-01-04T02:50:20.247Z,-29.10
2024-01-04T02:52:48.306Z,-29.05
2024-01-04T02:55:19.602Z,-28.64
2024-01-04T02:57:47.580Z,-28.59
2024-01-04T03:00:19.030Z,-28.52
2024-01-04T03:02:47.508Z,-28.42
2024-01-04T03:05:15.865Z,-28.51
2024-01-04T03:07:47.052Z,-28.48
2024-01-04T03:10:15.516Z,-29.01
2024-01-04T03:12:43.530Z,-28.97
2024-01-04T03:15:12.253Z,-29.03
2024-01-04T03:17:40.596Z,-28.69
2024-01-04T03:20:09.309Z,-28.67
2024-01-04T03:22:37.286Z,-28.76
2024-01-04T03:25:07.145Z,-28.79
2024-01-04T03:27:35.253Z,-28.61
2024-01-04T03:30:03.505Z,-28.57
2024-01-04T03:32:32.850Z,-28.65
2024-01-04T03:35:00.941Z,-28.92
2024-01-04T03:37:28.915Z,-28.59
2024-01-04T03:39:57.380Z,-28.48
2024-01-04T03:42:25.382Z,-28.50
2024-01-04T03:44:53.418Z,-28.80
2024-01-04T03:47:21.909Z,-29.19
2024-01-04T03:49:49.960Z,-28.64
2024-01-04T03:52:17.996Z,-28.76
2024-01-04T03:54:46.457Z,-28.74
2024-01-04T03:57:14.516Z,-28.51
2024-01-04T03:59:42.564Z,-28.36
2024-01-04T04:02:14.239Z,-29.16
2024-01-04T04:04:42.738Z,-28.93
2024-01-04T04:07:11.764Z,-29.25
2024-01-04T04:09:39.933Z,-29.46
2024-01-04T04:12:08.686Z,-29.18
2024-01-04T04:14:36.930Z,-29.25
2024-01-04T04:17:05.144Z,-29.07
2024-01-04T04:19:33.560Z,-28.25
2024-01-04T04:22:01.715Z,-27.93
2024-01-04T04:24:29.748Z,-28.05
2024-01-04T04:27:01.249Z,-28.37
2024-01-04T04:29:29.257Z,-28.49
2024-01-04T04:31:57.252Z,-28.34
2024-01-04T04:34:25.881Z,-28.20
2024-01-04T04:36:54.022Z,-28.35
2024-01-04T04:39:22.113Z,-28.02
2024-01-04T04:41:50.561Z,-28.10
2024-01-04T04:44:18.554Z,-27.97
2024-01-04T04:46:46.608Z,-27.81
2024-01-04T04:49:15.243Z,-27.80
2024-01-04T04:51:46.320Z,-27.77
2024-01-04T04:54:18.329Z,-27.86
2024-01-04T04:56:46.540Z,-27.76
2024-01-04T04:59:15.656Z,-27.64
2024-01-04T05:01:45.676Z,-27.47
2024-01-04T05:04:13.872Z,-27.33
2024-01-04T05:06:43.509Z,-27.20
2024-01-04T05:09:11.681Z,-27.00
2024-01-04T05:11:39.620Z,-27.07
2024-01-04T05:14:08.046Z,-27.12
2024-01-04T05:16:35.915Z,-27.11
2024-01-04T05:19:04.278Z,-27.26
2024-01-04T05:21:34.770Z,-27.39
2024-01-04T05:24:07.094Z,-27.37
2024-01-04T05:26:35.548Z,-27.57
2024-01-04T05:29:03.987Z,-27.54
2024-01-04T05:31:31.820Z,-27.76
2024-01-04T05:34:00.446Z,-27.71
2024-01-04T05:36:28.634Z,-27.78
2024-01-04T05:38:56.729Z,-27.83
2024-01-04T05:41:25.214Z,-27.87
2024-01-04T05:43:53.271Z,-27.78
2024-01-04T05:46:22.170Z,-27.82
2024-01-04T05:48:54.111Z,-27.91
2024-01-04T05:51:25.348Z,-28.21
2024-01-04T05:54:10.975Z,-28.94
2024-01-04T05:56:40.197Z,-28.40
2024-01-04T05:59:08.189Z,-28.40
2024-01-04T06:01:38.207Z,-28.38
2024-01-04T06:04:07.686Z,-28.35
2024-01-04T06:06:35.824Z,-28.17
2024-01-04T06:09:06.685Z,-28.78
2024-01-04T06:11:35.270Z,-28.47
2024-01-04T06:14:05.151Z,-28.28
2024-01-04T06:16:33.693Z,-28.45
2024-01-04T06:19:02.237Z,-28.99
2024-01-04T06:21:30.352Z,-28.65
2024-01-04T06:23:58.852Z,-28.66
2024-01-04T06:26:27.393Z,-28.76
2024-01-04T06:28:55.396Z,-28.44
2024-01-04T06:31:23.349Z,-28.33
2024-01-04T06:33:54.861Z,-28.95
2024-01-04T06:36:22.998Z,-28.35
2024-01-04T06:38:52.167Z,-28.40
2024-01-04T06:41:24.727Z,-28.29
2024-01-04T06:43:53.323Z,-28.73
2024-01-04T06:46:21.366Z,-28.86
2024-01-04T06:48:49.551Z,-28.51
2024-01-04T06:51:18.226Z,-27.76
2024-01-04T06:53:46.440Z,-27.88
2024-01-04T06:56:20.142Z,-28.16
2024-01-04T06:58:49.522Z,-27.85
2024-01-04T07:01:21.318Z,-28.26
2024-01-04T07:03:50.959Z,-27.50
2024-01-04T07:06:19.024Z,-27.26
2024-01-04T07:08:47.037Z,-27.08
2024-01-04T07:11:15.407Z,-26.99
2024-01-04T07:13:43.581Z,-26.66
2024-01-04T07:16:11.525Z,-26.58
2024-01-04T07:18:40.027Z,-26.15
2024-01-04T07:21:08.296Z,-26.14
2024-01-04T07:23:36.351Z,-26.25
2024-01-04T07:26:07.926Z,-25.98
2024-01-04T07:28:36.055Z,-25.48
2024-01-04T07:31:04.840Z,-25.77
2024-01-04T07:33:33.074Z,-25.69
2024-01-04T07:36:01.585Z,-25.47
2024-01-04T07:38:30.007Z,-25.93
2024-01-04T07:40:58.076Z,-25.42
2024-01-04T07:43:26.143Z,-25.57
2024-01-04T07:45:54.466Z,-25.07
2024-01-04T07:48:23.303Z,-24.58
2024-01-04T07:50:54.071Z,-24.90
2024-01-04T07:53:22.800Z,-25.13
2024-01-04T07:55:54.043Z,-24.76
2024-01-04T07:58:25.824Z,-24.92
2024-01-04T08:00:59.855Z,-24.40
2024-01-04T08:03:30.159Z,-24.97
2024-01-04T08:05:58.327Z,-25.21
2024-01-04T08:08:29.032Z,-25.70
2024-01-04T08:10:59.402Z,-23.47
2024-01-04T08:13:27.675Z,-25.05
2024-01-04T08:15:56.048Z,-24.78
2024-01-04T08:18:24.898Z,-24.38
2024-01-04T08:20:53.145Z,-24.58
2024-01-04T08:23:21.649Z,-23.65
2024-01-04T08:25:50.031Z,-23.95
2024-01-04T08:28:18.202Z,-24.34
2024-01-04T08:30:46.423Z,-24.49
2024-01-04T08:33:14.945Z,-22.96
2024-01-04T08:35:43.176Z,-24.05
2024-01-04T08:38:11.131Z,-24.42
2024-01-04T08:40:43.583Z,-23.78
2024-01-04T08:43:11.583Z,-22.67
2024-01-04T08:45:39.815Z,-22.42
2024-01-04T08:48:11.277Z,-23.58
2024-01-04T08:50:39.745Z,-22.89
2024-01-04T08:53:08.822Z,-23.13
2024-01-04T08:55:40.100Z,-22.58
2024-01-04T08:58:10.083Z,-22.10
2024-01-04T09:00:38.196Z,-23.31
2024-01-04T09:03:06.631Z,-23.40
2024-01-04T09:05:35.220Z,-23.77
2024-01-04T09:08:03.994Z,-23.90
2024-01-04T09:10:32.874Z,-23.48
2024-01-04T09:13:01.332Z,-22.65
2024-01-04T09:15:29.562Z,-23.29
2024-01-04T09:17:57.988Z,-22.55
2024-01-04T09:20:26.460Z,-18.88
2024-01-04T09:22:54.637Z,-21.00
2024-01-04T09:25:24.362Z,-21.80
2024-01-04T09:27:58.118Z,-22.57
2024-01-04T09:33:14.793Z,-20.94
2024-01-04T09:35:43.091Z,-20.59
2024-01-04T09:38:11.135Z,-21.00
2024-01-04T09:40:39.545Z,-22.96
2024-01-04T09:43:08.830Z,-23.04
2024-01-04T09:45:40.324Z,-21.54
2024-01-04T09:48:21.034Z,-22.03
2024-01-04T09:50:57.346Z,-22.61
2024-01-04T09:53:27.475Z,-22.67
2024-01-04T09:55:58.016Z,-23.03
2024-01-04T09:58:26.670Z,-23.21
2024-01-04T10:00:55.972Z,-23.10
2024-01-04T10:03:27.172Z,-21.28
2024-01-04T10:05:57.624Z,-22.23
2024-01-04T10:08:35.756Z,-20.90
2024-01-04T10:11:14.560Z,-21.87
2024-01-04T10:13:44.013Z,-21.41
2024-01-04T10:16:14.975Z,-20.77
2024-01-04T10:18:47.444Z,-21.52
2024-01-04T10:21:17.109Z,-21.41
2024-01-04T10:23:45.731Z,-21.35
2024-01-04T10:26:19.279Z,-20.55
2024-01-04T10:28:47.804Z,-21.64
2024-01-04T10:31:18.030Z,-21.73
2024-01-04T10:33:46.943Z,-22.89
2024-01-04T10:36:17.727Z,-22.26
2024-01-04T10:38:46.174Z,-20.91
2024-01-04T10:41:21.325Z,-20.76
2024-01-04T10:44:08.014Z,-19.71
2024-01-04T10:46:38.844Z,-20.31
2024-01-04T10:49:07.262Z,-20.08
2024-01-04T10:51:35.471Z,-21.89
2024-01-04T10:54:03.821Z,-22.72
2024-01-04T10:56:36.691Z,-22.41
2024-01-04T10:59:06.318Z,-22.32
2024-01-04T11:01:35.682Z,-22.40
2024-01-04T11:04:04.187Z,-23.02
2024-01-04T11:06:35.898Z,-23.18
2024-01-04T11:09:04.586Z,-22.90
2024-01-04T11:11:35.338Z,-23.21
2024-01-04T11:14:07.189Z,-23.12
2024-01-04T11:17:06.132Z,-23.69
2024-01-04T11:20:18.780Z,-23.33
2024-01-04T11:23:12.424Z,-23.16
2024-01-04T11:25:51.744Z,-22.52
2024-01-04T11:28:29.784Z,-22.25
2024-01-04T11:31:06.358Z,-22.66
2024-01-04T11:33:42.972Z,-23.00
2024-01-04T11:36:18.030Z,-23.02
2024-01-04T11:38:47.958Z,-21.45
2024-01-04T11:41:15.985Z,-22.06
2024-01-04T11:43:48.217Z,-23.16
2024-01-04T11:46:28.159Z,-21.94
2024-01-04T11:49:06.153Z,-23.10
2024-01-04T11:51:34.816Z,-22.70
2024-01-04T11:54:03.976Z,-22.53
2024-01-04T11:56:32.040Z,-22.79
2024-01-04T11:59:14.268Z,-21.96
2024-01-04T12:01:44.889Z,-22.32
2024-01-04T12:04:17.309Z,-22.55
2024-01-04T12:06:50.169Z,-22.49
2024-01-04T12:09:19.522Z,-22.45
2024-01-04T12:11:56.910Z,-22.36
2024-01-04T12:14:27.096Z,-22.33
2024-01-04T12:16:55.554Z,-22.54
2024-01-04T12:19:23.839Z,-22.41
2024-01-04T12:21:56.788Z,-22.30
2024-01-04T12:24:25.836Z,-22.41
2024-01-04T12:26:54.819Z,-22.85
2024-01-04T12:29:23.233Z,-22.30
2024-01-04T12:31:52.197Z,-23.03
2024-01-04T12:34:21.437Z,-22.70
2024-01-04T12:36:49.485Z,-22.36
2024-01-04T12:39:17.556Z,-22.67
2024-01-04T12:41:46.734Z,-22.53
2024-01-04T12:44:16.630Z,-21.89
2024-01-04T12:46:46.256Z,-22.54
2024-01-04T12:49:20.330Z,-22.41
2024-01-04T12:51:55.393Z,-22.56
2024-01-04T12:54:23.740Z,-23.12
2024-01-04T12:56:56.756Z,-22.94
2024-01-04T12:59:24.927Z,-23.21
2024-01-04T13:01:53.405Z,-23.17
2024-01-04T13:04:21.981Z,-23.53
2024-01-04T13:06:50.512Z,-23.27
2024-01-04T13:09:21.629Z,-23.27
2024-01-04T13:11:49.772Z,-23.20
2024-01-04T13:14:18.216Z,-23.16
2024-01-04T13:16:46.466Z,-23.57
2024-01-04T13:19:16.840Z,-23.50
2024-01-04T13:21:46.291Z,-23.47
2024-01-04T13:24:14.656Z,-23.28
2024-01-04T13:26:44.848Z,-23.48
2024-01-04T13:29:15.332Z,-23.53
2024-01-04T13:31:43.451Z,-23.51
2024-01-04T13:34:11.814Z,-23.55
2024-01-04T13:36:40.511Z,-23.55
2024-01-04T13:39:12.083Z,-23.63
2024-01-04T13:41:41.812Z,-23.83
2024-01-04T13:44:09.732Z,-24.03
2024-01-04T13:46:37.733Z,-23.94
2024-01-04T13:49:06.273Z,-23.92
2024-01-04T13:51:35.079Z,-23.77
2024-01-04T13:54:03.522Z,-23.77
2024-01-04T13:56:32.952Z,-23.84
2024-01-04T13:59:01.049Z,-23.83
2024-01-04T14:01:29.221Z,-24.10
2024-01-04T14:03:57.939Z,-24.10
2024-01-04T14:06:26.216Z,-23.84
2024-01-04T14:08:55.363Z,-23.95
2024-01-04T14:11:26.611Z,-23.86
2024-01-04T14:13:59.556Z,-24.20
2024-01-04T14:16:28.080Z,-24.22
2024-01-04T14:18:56.332Z,-24.24
2024-01-04T14:21:24.838Z,-24.46
2024-01-04T14:23:53.746Z,-24.51
2024-01-04T14:26:21.948Z,-24.67
2024-01-04T14:28:50.049Z,-24.52
2024-01-04T14:31:20.767Z,-24.35
2024-01-04T14:33:51.508Z,-24.89
2024-01-04T14:36:20.408Z,-24.76
2024-01-04T14:38:50.248Z,-24.59
2024-01-04T14:41:19.337Z,-24.59
2024-01-04T14:43:50.212Z,-24.42
2024-01-04T14:46:27.329Z,-24.42
2024-01-04T14:48:56.294Z,-24.41
2024-01-04T14:51:25.358Z,-24.57
2024-01-04T14:53:54.130Z,-24.50
2024-01-04T14:56:23.160Z,-24.55
2024-01-04T14:58:51.330Z,-24.41
2024-01-04T15:01:22.376Z,-24.73
2024-01-04T15:03:54.442Z,-24.70
2024-01-04T15:06:22.694Z,-24.79
2024-01-04T15:08:52.059Z,-24.86
2024-01-04T15:11:21.683Z,-24.94
2024-01-04T15:13:49.937Z,-25.10
2024-01-04T15:16:17.874Z,-25.27
2024-01-04T15:18:46.520Z,-24.87
2024-01-04T15:21:14.742Z,-24.76
2024-01-04T15:23:42.847Z,-24.79
2024-01-04T15:26:12.602Z,-24.98
2024-01-04T15:28:40.928Z,-24.96
2024-01-04T15:31:09.099Z,-25.10
2024-01-04T15:33:37.847Z,-25.16
2024-01-04T15:36:06.268Z,-25.32
2024-01-04T15:38:35.285Z,-25.16
2024-01-04T15:41:04.251Z,-25.06
2024-01-04T15:43:32.478Z,-25.07
2024-01-04T15:46:01.000Z,-25.05
2024-01-04T15:48:29.737Z,-25.10
2024-01-04T15:51:00.472Z,-25.40
2024-01-04T15:53:28.583Z,-25.46
2024-01-04T15:55:57.304Z,-25.37
2024-01-04T15:58:25.325Z,-25.20
2024-01-04T16:00:53.400Z,-25.12
2024-01-04T16:03:22.049Z,-25.07
2024-01-04T16:05:50.536Z,-25.28
2024-01-04T16:08:18.643Z,-25.34
2024-01-04T16:10:47.126Z,-25.35
2024-01-04T16:13:15.265Z,-25.41
2024-01-04T16:15:43.200Z,-25.42
2024-01-04T16:18:11.946Z,-25.52
2024-01-04T16:20:44.250Z,-25.39
2024-01-04T16:23:13.731Z,-25.59
2024-01-04T16:25:41.782Z,-25.62
2024-01-04T16:28:09.743Z,-25.85
2024-01-04T16:30:38.247Z,-25.57
2024-01-04T16:33:08.340Z,-25.69
2024-01-04T16:35:40.178Z,-25.57
2024-01-04T16:38:09.051Z,-25.50
2024-01-04T16:40:37.470Z,-25.41
2024-01-04T16:43:12.408Z,-25.68
2024-01-04T16:45:40.794Z,-25.75
2024-01-04T16:48:09.317Z,-25.70
2024-01-04T16:50:37.766Z,-26.00
2024-01-04T16:53:06.486Z,-25.73
2024-01-04T16:55:37.866Z,-25.87
2024-01-04T16:58:11.100Z,-25.74
2024-01-04T17:00:45.338Z,-25.95
2024-01-04T17:03:33.849Z,-25.77
2024-01-04T17:06:04.389Z,-25.67
2024-01-04T17:08:33.421Z,-25.72
2024-01-04T17:11:01.774Z,-25.80
2024-01-04T17:13:31.009Z,-25.99
2024-01-04T17:15:59.699Z,-26.13
2024-01-04T17:18:34.550Z,-26.06
2024-01-04T17:21:03.167Z,-25.76
2024-01-04T17:23:37.164Z,-26.23
2024-01-04T17:26:08.525Z,-26.03
2024-01-04T17:28:36.968Z,-26.05
2024-01-04T17:31:05.505Z,-26.19
2024-01-04T17:33:34.132Z,-26.17
2024-01-04T17:36:22.074Z,-26.05
2024-01-04T17:38:56.082Z,-26.46
2024-01-04T17:41:27.799Z,-26.38
2024-01-04T17:43:56.366Z,-26.19
2024-01-04T17:46:25.044Z,-25.88
2024-01-04T17:48:57.757Z,-26.59
2024-01-04T17:51:27.337Z,-26.14
2024-01-04T17:53:55.758Z,-26.31
2024-01-04T17:56:24.009Z,-26.38
2024-01-04T17:58:52.448Z,-26.15
2024-01-04T18:01:23.682Z,-26.16
2024-01-04T18:03:52.585Z,-26.26
2024-01-04T18:06:23.959Z,-26.08
2024-01-04T18:08:54.980Z,-25.99
2024-01-04T18:11:24.419Z,-26.17
2024-01-04T18:13:54.124Z,-26.31
2024-01-04T18:16:25.938Z,-26.28
2024-01-04T18:18:55.599Z,-26.55
2024-01-04T18:21:24.980Z,-26.20
2024-01-04T18:24:00.513Z,-26.33
2024-01-04T18:26:32.118Z,-26.56
2024-01-04T18:29:04.676Z,-26.70
2024-01-04T18:31:33.932Z,-26.81
2024-01-04T18:34:03.058Z,-26.71
2024-01-04T18:36:41.412Z,-26.44
2024-01-04T18:39:11.638Z,-26.34
2024-01-04T18:41:45.066Z,-26.32
2024-01-04T18:44:16.072Z,-26.18
2024-01-04T18:49:47.301Z,-26.36
2024-01-04T18:52:20.959Z,-26.61
2024-01-04T18:54:49.019Z,-26.71
2024-01-04T18:57:17.537Z,-26.34
2024-01-04T18:59:45.853Z,-26.51
2024-01-04T19:02:15.791Z,-26.53
2024-01-04T19:04:48.363Z,-26.56
2024-01-04T19:07:19.522Z,-26.60
2024-01-04T19:09:48.634Z,-26.73
2024-01-04T19:12:17.781Z,-26.74
2024-01-04T19:14:46.266Z,-26.62
2024-01-04T19:17:15.337Z,-26.64
2024-01-04T19:19:44.772Z,-26.71
2024-01-04T19:22:13.119Z,-26.45
2024-01-04T19:24:41.944Z,-26.33
2024-01-04T19:27:10.332Z,-26.05
2024-01-04T19:29:38.531Z,-26.45
2024-01-04T19:32:07.224Z,-26.39
2024-01-04T19:34:35.451Z,-26.37
2024-01-04T19:37:03.945Z,-26.63
2024-01-04T19:39:37.271Z,-26.45
2024-01-04T19:42:19.106Z,-26.51
2024-01-04T19:44:51.461Z,-26.42
2024-01-04T19:47:31.041Z,-26.40
2024-01-04T19:50:06.283Z,-26.47
2024-01-04T19:52:39.404Z,-26.58
2024-01-04T19:55:15.181Z,-26.29
2024-01-04T19:57:44.265Z,-26.40
2024-01-04T20:00:17.477Z,-26.42
2024-01-04T20:02:47.514Z,-26.34
2024-01-04T20:05:16.438Z,-26.45
2024-01-04T20:07:45.128Z,-26.58
2024-01-04T20:10:13.682Z,-26.48
2024-01-04T20:12:51.268Z,-26.66
2024-01-04T20:15:19.684Z,-26.59
2024-01-04T20:18:07.773Z,-26.59
2024-01-04T20:20:44.541Z,-26.51
2024-01-04T20:23:17.389Z,-26.49
2024-01-04T20:25:45.867Z,-26.34
2024-01-04T20:28:14.108Z,-26.54
2024-01-04T20:30:42.466Z,-26.46
2024-01-04T20:33:14.088Z,-26.43
2024-01-04T20:35:42.042Z,-26.32
2024-01-04T20:38:10.800Z,-26.02
2024-01-04T20:40:41.905Z,-26.33
2024-01-04T20:43:31.105Z,-26.54
2024-01-04T20:45:59.795Z,-26.56
2024-01-04T20:48:41.805Z,-26.36
2024-01-04T20:51:12.102Z,-26.46
2024-01-04T20:53:44.396Z,-26.48
2024-01-04T20:56:12.558Z,-26.74
2024-01-04T20:58:41.150Z,-26.48
2024-01-04T21:01:09.409Z,-26.65
2024-01-04T21:03:42.913Z,-26.74
2024-01-04T21:06:12.003Z,-26.58
2024-01-04T21:08:43.744Z,-26.69
2024-01-04T21:11:18.487Z,-26.71
2024-01-04T21:14:06.410Z,-26.55
2024-01-04T21:16:35.044Z,-26.61
2024-01-04T21:19:02.851Z,-26.63
2024-01-04T21:21:31.052Z,-26.50
2024-01-04T21:24:00.885Z,-26.54
2024-01-04T21:29:20.113Z,-26.56
2024-01-04T21:31:49.677Z,-26.43
2024-01-04T21:34:18.155Z,-26.42
2024-01-04T21:36:46.939Z,-26.54
2024-01-04T21:39:22.668Z,-26.05
2024-01-04T21:41:51.114Z,-25.98
2024-01-04T21:44:19.172Z,-26.73
2024-01-04T21:46:51.440Z,-26.55
2024-01-04T21:49:24.376Z,-26.61
2024-01-04T21:51:53.206Z,-26.42
2024-01-04T21:54:21.742Z,-26.19
2024-01-04T21:56:52.785Z,-26.17
2024-01-04T21:59:42.337Z,-26.56
2024-01-04T22:02:19.176Z,-26.46
2024-01-04T22:04:52.811Z,-26.54
2024-01-04T22:07:22.416Z,-26.48
2024-01-04T22:09:51.038Z,-26.34
2024-01-04T22:12:19.190Z,-25.94
2024-01-04T22:14:47.217Z,-26.19
2024-01-04T22:17:15.730Z,-26.28
2024-01-04T22:19:44.232Z,-26.43
2024-01-04T22:22:12.532Z,-26.04
2024-01-04T22:24:41.567Z,-26.68
2024-01-04T22:27:12.728Z,-26.68
2024-01-04T22:29:42.567Z,-26.75
2024-01-04T22:32:10.764Z,-26.31
2024-01-04T22:34:42.972Z,-26.27
2024-01-04T22:37:12.369Z,-26.54
2024-01-04T22:39:41.820Z,-26.57
2024-01-04T22:42:10.445Z,-26.57
2024-01-04T22:44:38.884Z,-26.29
2024-01-04T22:47:07.036Z,-26.53
2024-01-04T22:49:35.170Z,-26.45
2024-01-04T22:52:05.241Z,-26.51
2024-01-04T22:54:33.644Z,-26.81
2024-01-04T22:57:02.253Z,-26.46
2024-01-04T22:59:30.930Z,-26.54
2024-01-04T23:01:58.910Z,-26.82
2024-01-04T23:04:27.713Z,-26.65
2024-01-04T23:06:56.630Z,-26.76
2024-01-04T23:09:24.730Z,-26.60
2024-01-04T23:11:52.730Z,-26.63
2024-01-04T23:14:21.856Z,-26.67
2024-01-04T23:16:49.682Z,-26.45
2024-01-04T23:19:18.364Z,-26.57
2024-01-04T23:21:46.817Z,-26.47
2024-01-04T23:24:18.249Z,-26.51
2024-01-04T23:26:46.683Z,-26.90
2024-01-04T23:29:15.137Z,-26.94
2024-01-04T23:31:43.047Z,-26.81
2024-01-04T23:34:11.654Z,-26.79
2024-01-04T23:36:40.795Z,-27.01
2024-01-04T23:39:09.744Z,-26.80
2024-01-04T23:41:40.705Z,-27.01
2024-01-04T23:44:11.128Z,-27.01
2024-01-04T23:46:39.408Z,-26.26
2024-01-04T23:49:07.946Z,-26.41
2024-01-04T23:51:39.279Z,-26.61
2024-01-04T23:54:07.958Z,-26.82
2024-01-04T23:56:35.953Z,-26.88
2024-01-04T23:59:04.156Z,-26.69
